Time;durP1;ratioP1;P1;durP2;ratioP2;P2;SDS_P1;SDS_P2;PMS_P1;PMS_P2;Temp;Humidity;BMP_temperature;BMP_pressure;BME280_temperature;BME280_humidity;BME280_pressure;Samples;Min_cycle;Max_cycle;Signal;HPM_P1;HPM_P2
2022/05/15 00:01:44;;;;;;;4.95;1.38;;;;;;;12.16;nan;102116.72;5040158;28;20131;-47
2022/05/15 00:04:10;;;;;;;7.78;1.70;;;;;;;11.93;nan;102116.59;5017127;28;20038;-48
2022/05/15 00:06:35;;;;;;;5.78;2.20;;;;;;;11.81;nan;102113.81;5014629;28;20192;-47
2022/05/15 00:09:01;;;;;;;5.97;1.90;;;;;;;11.65;nan;102117.03;5020119;28;20040;-51
2022/05/15 00:11:27;;;;;;;4.60;1.90;;;;;;;11.45;nan;102111.84;5012289;28;20395;-48
2022/05/15 00:13:53;;;;;;;7.35;1.80;;;;;;;11.27;nan;102115.31;5023771;28;20039;-47
2022/05/15 00:16:19;;;;;;;3.85;1.60;;;;;;;11.24;nan;102125.66;5015863;28;20034;-47
2022/05/15 00:18:44;;;;;;;4.25;1.55;;;;;;;11.17;nan;102118.50;5018613;28;20048;-49
2022/05/15 00:21:11;;;;;;;8.02;2.20;;;;;;;11.02;nan;102119.84;5017853;28;20494;-49
2022/05/15 00:23:37;;;;;;;6.00;1.77;;;;;;;10.88;nan;102109.22;5024267;28;20108;-48
2022/05/15 00:26:03;;;;;;;4.60;1.52;;;;;;;10.81;nan;102113.00;5015666;28;21634;-46
2022/05/15 00:28:28;;;;;;;4.53;1.80;;;;;;;10.76;nan;102116.31;5025061;28;20068;-48
2022/05/15 00:30:54;;;;;;;6.15;2.20;;;;;;;10.70;nan;102121.72;5018191;28;20121;-47
2022/05/15 00:33:19;;;;;;;4.95;1.63;;;;;;;10.65;nan;102119.69;5022196;28;20479;-49
2022/05/15 00:35:45;;;;;;;4.80;1.80;;;;;;;10.55;nan;102122.00;5017753;28;20426;-47
2022/05/15 00:38:11;;;;;;;8.15;1.90;;;;;;;10.51;nan;102116.25;5021509;28;20030;-49
2022/05/15 00:40:39;;;;;;;4.47;1.85;;;;;;;10.45;nan;102114.44;5023679;28;20441;-47
2022/05/15 00:43:10;;;;;;;8.07;2.05;;;;;;;10.42;nan;102108.69;5017331;28;20040;-48
2022/05/15 00:45:35;;;;;;;8.85;1.90;;;;;;;10.46;nan;102113.41;5016983;28;20033;-50
2022/05/15 00:48:01;;;;;;;5.18;1.90;;;;;;;10.45;nan;102119.78;5017143;28;20029;-46
2022/05/15 00:50:31;;;;;;;5.18;1.70;;;;;;;10.43;nan;102115.69;5019449;28;20021;-47
2022/05/15 00:53:02;;;;;;;6.47;2.30;;;;;;;10.35;nan;102114.06;5023025;28;20115;-49
2022/05/15 00:55:33;;;;;;;5.53;1.92;;;;;;;10.23;nan;102126.47;5021951;28;20084;-48
2022/05/15 00:58:03;;;;;;;3.45;1.75;;;;;;;10.13;nan;102118.03;5015363;28;20052;-49
2022/05/15 01:00:33;;;;;;;6.30;1.75;;;;;;;10.03;nan;102106.94;5020342;28;20044;-47
2022/05/15 01:03:09;;;;;;;4.40;1.75;;;;;;;9.91;nan;102112.97;5029180;28;20146;-47
2022/05/15 01:05:38;;;;;;;7.45;2.13;;;;;;;9.90;nan;102111.31;5038761;28;20025;-50
2022/05/15 01:08:06;;;;;;;5.97;1.58;;;;;;;9.89;nan;102112.34;5031226;28;20120;-48
2022/05/15 01:10:34;;;;;;;4.68;1.95;;;;;;;9.84;nan;102114.81;5049711;28;20410;-47
2022/05/15 01:13:00;;;;;;;8.38;1.70;;;;;;;9.81;nan;102111.75;5038039;28;20049;-48
2022/05/15 01:15:28;;;;;;;6.25;2.55;;;;;;;9.74;nan;102114.44;5048203;28;20099;-47
2022/05/15 01:17:54;;;;;;;8.30;2.38;;;;;;;9.71;nan;102117.53;5045456;28;20504;-47
2022/05/15 01:20:22;;;;;;;9.18;1.90;;;;;;;9.58;nan;102113.03;5037443;28;20028;-49
2022/05/15 01:22:48;;;;;;;7.47;1.83;;;;;;;9.54;nan;102119.81;5044335;28;20105;-49
2022/05/15 01:25:18;;;;;;;4.47;1.95;;;;;;;9.47;nan;102120.84;5043179;28;20070;-51
2022/05/15 01:27:49;;;;;;;9.02;2.63;;;;;;;9.41;nan;102127.03;5036191;28;20700;-51
2022/05/15 01:30:15;;;;;;;4.68;1.98;;;;;;;9.09;nan;102134.84;5037636;28;20025;-50
2022/05/15 01:32:40;;;;;;;9.45;2.35;;;;;;;8.79;nan;102137.84;5041220;28;20056;-49
2022/05/15 01:35:06;;;;;;;10.10;2.42;;;;;;;8.63;nan;102140.94;5034813;28;20033;-48
2022/05/15 01:37:32;;;;;;;4.18;1.70;;;;;;;8.66;nan;102147.72;5043951;28;20279;-48
2022/05/15 01:39:58;;;;;;;4.10;1.92;;;;;;;8.61;nan;102147.47;5037786;28;20063;-48
2022/05/15 01:42:24;;;;;;;8.77;2.00;;;;;;;8.55;nan;102149.09;5038841;28;20067;-48
2022/05/15 01:44:49;;;;;;;6.30;2.30;;;;;;;8.61;nan;102150.97;5039955;28;20063;-49
2022/05/15 01:47:15;;;;;;;9.05;2.42;;;;;;;8.70;nan;102146.28;5036048;28;20389;-49
2022/05/15 01:49:41;;;;;;;5.10;1.70;;;;;;;8.72;nan;102142.38;5038282;28;20370;-48
2022/05/15 01:52:07;;;;;;;6.53;2.08;;;;;;;8.67;nan;102152.03;5039775;28;20025;-50
2022/05/15 01:54:32;;;;;;;8.98;2.00;;;;;;;8.64;nan;102153.25;5037343;28;20365;-50
2022/05/15 01:56:58;;;;;;;5.90;2.13;;;;;;;8.56;nan;102153.41;5043713;28;20090;-49
2022/05/15 01:59:23;;;;;;;3.20;1.88;;;;;;;8.50;nan;102148.88;5034780;28;20865;-52
2022/05/15 02:01:49;;;;;;;7.15;2.00;;;;;;;8.45;nan;102151.34;5036624;28;20244;-48
2022/05/15 02:04:14;;;;;;;4.88;2.53;;;;;;;8.41;nan;102148.22;5018849;28;20436;-48
2022/05/15 02:06:40;;;;;;;8.27;2.40;;;;;;;8.41;nan;102144.72;5039167;28;20422;-50
2022/05/15 02:09:07;;;;;;;2.88;1.60;;;;;;;8.52;nan;102144.16;5036869;28;20040;-50
2022/05/15 02:11:34;;;;;;;9.25;1.83;;;;;;;8.59;nan;102150.34;5042188;28;20625;-48
2022/05/15 02:14:00;;;;;;;5.47;2.00;;;;;;;8.57;nan;102147.06;5037593;28;20032;-50
2022/05/15 02:16:26;;;;;;;5.30;1.95;;;;;;;8.55;nan;102154.44;5040444;28;20040;-51
2022/05/15 02:18:51;;;;;;;58.97;5.22;;;;;;;8.44;nan;102152.38;5042133;28;20029;-48
2022/05/15 02:21:17;;;;;;;25.75;3.10;;;;;;;8.21;nan;102154.47;5037545;28;20022;-50
2022/05/15 02:23:43;;;;;;;7.25;2.30;;;;;;;8.03;nan;102155.00;5041530;28;20028;-52
2022/05/15 02:26:08;;;;;;;9.35;2.35;;;;;;;7.82;nan;102161.22;5038271;28;20033;-50
2022/05/15 02:28:34;;;;;;;5.82;1.90;;;;;;;7.86;nan;102149.97;5041133;28;20029;-48
2022/05/15 02:30:59;;;;;;;7.18;2.03;;;;;;;7.96;nan;102156.81;5036263;28;20086;-52
2022/05/15 02:33:25;;;;;;;7.65;1.50;;;;;;;7.96;nan;102160.31;5045748;28;20556;-48
2022/05/15 02:35:50;;;;;;;4.75;1.92;;;;;;;7.89;nan;102162.91;5039877;28;20031;-49
2022/05/15 02:38:16;;;;;;;3.95;1.60;;;;;;;7.82;nan;102164.72;5039447;28;20475;-48
2022/05/15 02:40:42;;;;;;;4.55;1.90;;;;;;;7.78;nan;102167.97;5035372;28;20068;-50
2022/05/15 02:43:08;;;;;;;5.90;1.90;;;;;;;7.69;nan;102167.28;5039409;28;20029;-48
2022/05/15 02:45:33;;;;;;;10.30;2.35;;;;;;;7.69;nan;102158.47;5034956;28;20573;-48
2022/05/15 02:47:59;;;;;;;7.50;2.65;;;;;;;7.68;nan;102167.50;5042190;28;20036;-49
2022/05/15 02:53:08;;;;;;;7.75;2.55;;;;;;;7.81;nan;102172.94;5040399;28;20132;-47
2022/05/15 02:55:35;;;;;;;5.75;2.17;;;;;;;7.81;nan;102167.59;5043136;28;20108;-48
2022/05/15 02:58:00;;;;;;;9.98;2.10;;;;;;;7.75;nan;102179.88;5034721;28;20248;-48
2022/05/15 03:00:27;;;;;;;5.00;1.77;;;;;;;7.69;nan;102174.47;5040357;28;20695;-52
2022/05/15 03:02:53;;;;;;;4.82;2.25;;;;;;;7.61;nan;102169.28;5034962;28;20099;-50
2022/05/15 03:05:20;;;;;;;5.53;1.70;;;;;;;7.54;nan;102175.41;5023542;28;20029;-51
2022/05/15 03:07:47;;;;;;;4.68;1.63;;;;;;;7.58;nan;102176.66;5022752;28;20026;-49
2022/05/15 03:10:15;;;;;;;6.10;2.22;;;;;;;7.60;nan;102180.97;5028942;28;20032;-48
2022/05/15 03:12:41;;;;;;;5.80;2.55;;;;;;;7.51;nan;102189.09;5019093;28;20022;-48
2022/05/15 03:15:08;;;;;;;10.43;2.47;;;;;;;7.41;nan;102183.28;5025718;28;20431;-50
2022/05/15 03:17:35;;;;;;;7.18;2.28;;;;;;;7.36;nan;102188.38;5026328;28;20037;-47
2022/05/15 03:20:02;;;;;;;7.05;1.95;;;;;;;7.43;nan;102180.44;5025212;28;20033;-50
2022/05/15 03:22:28;;;;;;;5.35;1.65;;;;;;;7.54;nan;102177.22;5025732;28;20040;-49
2022/05/15 03:24:53;;;;;;;7.20;1.95;;;;;;;7.51;nan;102178.44;5024747;28;20029;-50
2022/05/15 03:27:19;;;;;;;8.00;2.40;;;;;;;7.49;nan;102193.81;5019671;28;20111;-50
2022/05/15 03:29:44;;;;;;;4.68;1.95;;;;;;;7.43;nan;102189.25;5026128;28;20029;-51
2022/05/15 03:32:10;;;;;;;6.30;2.10;;;;;;;7.39;nan;102187.19;5019318;28;20022;-50
2022/05/15 03:34:35;;;;;;;6.43;2.45;;;;;;;7.32;nan;102192.44;5027085;28;20033;-49
2022/05/15 03:37:01;;;;;;;6.75;1.83;;;;;;;7.32;nan;102188.94;5023889;28;20136;-47
2022/05/15 03:39:26;;;;;;;8.80;1.90;;;;;;;7.36;nan;102187.53;5022198;28;20025;-50
2022/05/15 03:41:52;;;;;;;4.85;1.63;;;;;;;7.34;nan;102190.38;5024863;28;20075;-48
2022/05/15 03:44:18;;;;;;;7.25;2.05;;;;;;;7.30;nan;102191.78;5027561;28;20054;-49
2022/05/15 03:46:44;;;;;;;6.07;2.03;;;;;;;7.25;nan;102194.22;5027112;28;20033;-50
2022/05/15 03:49:13;;;;;;;5.90;2.47;;;;;;;7.24;nan;102197.91;5023462;28;20021;-48
2022/05/15 03:51:39;;;;;;;7.55;2.28;;;;;;;7.20;nan;102192.13;5026495;28;20017;-49
2022/05/15 03:54:05;;;;;;;4.55;1.55;;;;;;;7.19;nan;102187.00;5020296;28;20033;-50
2022/05/15 03:59:17;;;;;;;5.30;1.90;;;;;;;7.27;nan;102197.50;5017702;28;20040;-48
2022/05/15 04:01:43;;;;;;;4.25;2.08;;;;;;;7.31;nan;102197.94;5025675;28;20025;-49
2022/05/15 04:04:09;;;;;;;3.40;2.10;;;;;;;7.33;nan;102196.75;5041401;28;20036;-51
2022/05/15 04:06:35;;;;;;;3.53;2.58;;;;;;;7.28;nan;102204.50;5044860;28;20040;-46
2022/05/15 04:09:00;;;;;;;4.85;3.03;;;;;;;7.30;nan;102205.13;5041805;28;20039;-48
2022/05/15 04:11:26;;;;;;;4.68;2.53;;;;;;;7.31;nan;102201.44;5044936;28;20032;-48
2022/05/15 04:13:51;;;;;;;7.22;2.30;;;;;;;7.43;nan;102204.44;5041052;28;20405;-49
2022/05/15 04:16:17;;;;;;;6.32;2.75;;;;;;;7.51;nan;102199.78;5041999;28;20103;-48
2022/05/15 04:18:43;;;;;;;7.95;2.00;;;;;;;7.64;nan;102207.06;5041327;28;20098;-48
2022/05/15 04:21:08;;;;;;;3.05;2.08;;;;;;;7.77;nan;102204.50;5040230;28;20567;-49
2022/05/15 04:23:35;;;;;;;7.72;2.70;;;;;;;7.82;nan;102206.59;5039295;28;20056;-49
2022/05/15 04:26:00;;;;;;;4.72;2.33;;;;;;;7.88;nan;102203.13;5039668;28;20029;-49
2022/05/15 04:28:26;;;;;;;6.13;2.20;;;;;;;7.98;nan;102208.16;5037295;28;20028;-47
2022/05/15 04:30:52;;;;;;;5.75;1.95;;;;;;;8.11;nan;102213.59;5037576;28;20052;-49
2022/05/15 04:33:17;;;;;;;6.57;2.30;;;;;;;8.24;nan;102216.31;5038956;28;20494;-47
2022/05/15 04:35:43;;;;;;;5.97;2.58;;;;;;;8.37;nan;102219.09;5041934;28;20032;-50
2022/05/15 04:38:10;;;;;;;5.22;2.45;;;;;;;8.49;nan;102214.03;5042041;28;20414;-51
2022/05/15 04:40:35;;;;;;;6.28;2.40;;;;;;;8.61;nan;102220.44;5037542;28;20030;-50
2022/05/15 04:43:01;;;;;;;9.45;2.85;;;;;;;8.75;nan;102221.31;5043447;28;20459;-49
2022/05/15 04:45:26;;;;;;;8.38;2.50;;;;;;;8.85;nan;102218.28;5037484;28;20464;-48
2022/05/15 04:47:52;;;;;;;3.45;2.17;;;;;;;8.96;nan;102215.81;5044119;28;20032;-48
2022/05/15 04:50:18;;;;;;;8.77;2.63;;;;;;;9.09;nan;102225.75;5104851;22;20036;-37
2022/05/15 04:52:44;;;;;;;5.57;2.35;;;;;;;9.24;nan;102223.72;5105458;27;20111;-37
2022/05/15 04:55:10;;;;;;;7.20;2.30;;;;;;;9.35;nan;102233.84;5109791;27;20051;-37
2022/05/15 04:57:36;;;;;;;9.18;2.17;;;;;;;9.49;nan;102228.47;5112363;27;20039;-37
2022/05/15 05:00:04;;;;;;;8.50;2.05;;;;;;;9.60;nan;102225.19;5094453;28;20032;-37
2022/05/15 05:02:30;;;;;;;6.32;2.55;;;;;;;9.71;nan;102232.63;5093265;28;20464;-37
2022/05/15 05:04:59;;;;;;;5.15;2.05;;;;;;;9.83;nan;102230.97;5091972;28;20043;-37
2022/05/15 05:07:26;;;;;;;7.10;2.10;;;;;;;9.93;nan;102234.06;5097114;28;20028;-37
2022/05/15 05:09:51;;;;;;;7.70;2.63;;;;;;;10.02;nan;102236.50;5091397;28;20035;-37
2022/05/15 05:12:17;;;;;;;5.28;1.98;;;;;;;10.15;nan;102237.31;5094072;28;20017;-37
2022/05/15 05:14:42;;;;;;;3.95;2.40;;;;;;;10.27;nan;102246.41;5093512;28;20024;-37
2022/05/15 05:17:08;;;;;;;8.95;2.50;;;;;;;10.41;nan;102252.56;5092367;28;20028;-37
2022/05/15 05:19:33;;;;;;;4.10;1.85;;;;;;;10.57;nan;102252.06;5094886;28;20396;-36
2022/05/15 05:21:59;;;;;;;5.53;2.13;;;;;;;10.66;nan;102257.22;5094629;28;20027;-37
2022/05/15 05:24:24;;;;;;;4.50;2.17;;;;;;;10.77;nan;102257.38;5088985;28;21509;-37
2022/05/15 05:26:50;;;;;;;9.52;1.92;;;;;;;10.92;nan;102265.13;5093051;28;20030;-37
2022/05/15 05:29:15;;;;;;;6.32;1.85;;;;;;;11.06;nan;102264.03;5087029;28;20031;-37
2022/05/15 05:31:41;;;;;;;6.65;2.08;;;;;;;11.17;nan;102267.91;5102170;28;20126;-37
2022/05/15 05:34:06;;;;;;;4.70;2.05;;;;;;;11.24;nan;102273.22;5089578;28;20020;-37
2022/05/15 05:36:32;;;;;;;5.55;2.65;;;;;;;11.31;nan;102271.31;5091379;28;20040;-37
2022/05/15 05:38:58;;;;;;;8.23;2.10;;;;;;;11.41;nan;102269.81;5086800;28;20107;-37
2022/05/15 05:41:24;;;;;;;5.95;1.90;;;;;;;11.54;nan;102276.97;5093473;28;20068;-37
2022/05/15 05:43:49;;;;;;;6.68;1.80;;;;;;;11.67;nan;102276.03;5094817;28;20028;-37
2022/05/15 05:46:15;;;;;;;6.25;1.77;;;;;;;11.79;nan;102285.06;5088570;28;20437;-37
2022/05/15 05:48:45;;;;;;;7.30;1.75;;;;;;;11.82;nan;102283.81;5087376;28;20024;-37
2022/05/15 05:51:12;;;;;;;6.10;2.10;;;;;;;11.93;nan;102296.53;5084177;28;20046;-37
2022/05/15 05:53:38;;;;;;;7.53;2.10;;;;;;;12.01;nan;102297.06;5085029;28;20487;-37
2022/05/15 05:56:04;;;;;;;6.15;2.30;;;;;;;12.02;nan;102301.41;5095525;28;20036;-38
2022/05/15 05:58:30;;;;;;;5.13;2.20;;;;;;;12.01;nan;102291.69;5087954;28;20139;-37
2022/05/15 06:00:55;;;;;;;7.05;2.17;;;;;;;12.16;nan;102299.44;5087813;28;20059;-37
2022/05/15 06:06:12;;;;;;;6.63;2.17;;;;;;;12.34;nan;102306.69;5062746;28;20036;-37
2022/05/15 06:08:39;;;;;;;7.65;2.00;;;;;;;12.49;nan;102300.97;5090906;28;20081;-38
2022/05/15 06:11:05;;;;;;;5.78;1.85;;;;;;;12.58;nan;102300.47;5085459;28;20020;-38
2022/05/15 06:13:31;;;;;;;6.85;2.13;;;;;;;12.61;nan;102302.72;5093420;28;20315;-37
2022/05/15 06:15:57;;;;;;;7.57;2.05;;;;;;;12.78;nan;102304.81;5094020;28;20028;-37
2022/05/15 06:18:23;;;;;;;8.10;2.15;;;;;;;12.94;nan;102305.03;5091408;28;20056;-37
2022/05/15 06:20:48;;;;;;;4.68;1.90;;;;;;;13.00;nan;102301.41;5093383;28;20046;-37
2022/05/15 06:23:14;;;;;;;7.57;1.90;;;;;;;12.93;nan;102306.06;5092725;28;20247;-37
2022/05/15 06:25:39;;;;;;;5.53;1.80;;;;;;;13.09;nan;102304.59;5092725;28;20028;-37
2022/05/15 06:28:05;;;;;;;5.60;2.17;;;;;;;13.19;nan;102304.09;5091479;28;20024;-38
2022/05/15 06:30:31;;;;;;;4.68;2.38;;;;;;;13.27;nan;102311.84;5089755;28;20393;-37
2022/05/15 06:32:59;;;;;;;4.65;1.65;;;;;;;13.35;nan;102313.44;5090646;28;20146;-37
2022/05/15 06:35:24;;;;;;;4.45;1.45;;;;;;;13.46;nan;102316.13;5091046;28;20111;-37
2022/05/15 06:37:50;;;;;;;5.53;2.17;;;;;;;13.52;nan;102311.72;5094265;28;20111;-37
2022/05/15 06:40:16;;;;;;;8.27;1.90;;;;;;;13.56;nan;102316.41;5093440;28;20051;-37
2022/05/15 06:42:42;;;;;;;5.22;1.67;;;;;;;13.59;nan;102317.81;5094101;28;20110;-37
2022/05/15 06:45:08;;;;;;;5.53;1.80;;;;;;;13.65;nan;102319.63;5094302;28;20269;-37
2022/05/15 06:47:34;;;;;;;6.07;1.98;;;;;;;13.74;nan;102317.41;5094702;28;20076;-37
2022/05/15 06:50:00;;;;;;;4.65;1.77;;;;;;;13.92;nan;102314.63;5093046;28;20031;-37
2022/05/15 06:52:27;;;;;;;8.18;1.88;;;;;;;14.09;nan;102309.38;5087594;28;20726;-37
2022/05/15 06:54:53;;;;;;;5.75;1.80;;;;;;;14.30;nan;102318.75;5096326;28;20019;-37
2022/05/15 06:57:34;;;;;;;3.67;2.00;;;;;;;14.40;nan;102324.41;5092351;28;20100;-37
2022/05/15 07:00:16;;;;;;;3.80;1.30;;;;;;;14.44;nan;102315.63;5091141;28;20027;-37
2022/05/15 07:02:42;;;;;;;6.70;1.85;;;;;;;14.54;nan;102316.88;5088285;28;20055;-37
2022/05/15 07:05:10;;;;;;;4.10;1.52;;;;;;;14.58;nan;102323.47;5091764;28;20440;-37
2022/05/15 07:07:37;;;;;;;6.30;1.60;;;;;;;14.70;nan;102327.78;5097040;28;20022;-38
2022/05/15 07:10:04;;;;;;;3.72;1.48;;;;;;;14.81;nan;102318.03;5087441;28;20088;-37
2022/05/15 07:12:29;;;;;;;5.22;1.40;;;;;;;14.93;nan;102318.00;5094015;28;20054;-38
2022/05/15 07:14:55;;;;;;;4.10;1.15;;;;;;;15.04;nan;102322.53;5089545;28;20062;-38
2022/05/15 07:17:20;;;;;;;3.13;1.13;;;;;;;15.15;nan;102321.69;5087597;28;20107;-38
2022/05/15 07:19:46;;;;;;;3.90;1.52;;;;;;;15.29;nan;102319.53;5092013;28;20032;-37
2022/05/15 07:22:12;;;;;;;2.70;1.10;;;;;;;15.39;nan;102323.22;5087685;28;20024;-38
2022/05/15 07:24:39;;;;;;;3.67;1.42;;;;;;;15.40;nan;102311.38;5089338;28;20035;-37
2022/05/15 07:27:06;;;;;;;2.67;1.00;;;;;;;15.36;nan;102312.09;5084160;28;20032;-38
2022/05/15 07:29:33;;;;;;;4.43;1.30;;;;;;;15.56;nan;102320.56;5081106;28;20083;-38
2022/05/15 07:31:59;;;;;;;3.05;1.00;;;;;;;15.62;nan;102326.94;5086417;28;20098;-37
2022/05/15 07:34:24;;;;;;;5.13;0.93;;;;;;;15.70;nan;102326.53;5078274;28;20100;-38
2022/05/15 07:36:52;;;;;;;2.92;0.98;;;;;;;15.86;nan;102330.31;5082086;28;20027;-37
2022/05/15 07:39:20;;;;;;;5.38;1.38;;;;;;;16.01;nan;102325.97;5083235;28;20063;-40
2022/05/15 07:41:46;;;;;;;5.75;1.60;;;;;;;16.11;nan;102327.19;5086553;28;20020;-39
2022/05/15 07:44:12;;;;;;;4.40;1.35;;;;;;;16.19;nan;102324.09;5086936;28;20051;-40
2022/05/15 07:46:40;;;;;;;3.90;1.58;;;;;;;16.21;nan;102322.75;5087930;28;20020;-40
2022/05/15 07:49:06;;;;;;;4.28;1.30;;;;;;;16.24;nan;102322.25;5082262;28;20032;-39
2022/05/15 07:51:32;;;;;;;2.85;0.90;;;;;;;16.37;nan;102326.53;5083176;28;20558;-39
2022/05/15 07:53:58;;;;;;;3.25;0.80;;;;;;;16.50;nan;102319.91;5090754;28;20027;-39
2022/05/15 07:56:24;;;;;;;4.28;1.30;;;;;;;16.38;nan;102321.94;5094927;28;20416;-40
2022/05/15 07:58:49;;;;;;;4.60;1.13;;;;;;;16.45;nan;102317.16;5092129;28;20036;-40
2022/05/15 08:01:15;;;;;;;3.63;0.85;;;;;;;16.60;nan;102323.59;5085473;28;20028;-39
2022/05/15 08:03:43;;;;;;;5.10;1.15;;;;;;;16.76;nan;102318.41;5084489;28;20040;-39
2022/05/15 08:08:56;;;;;;;3.85;1.05;;;;;;;16.97;nan;102319.47;5085430;28;20035;-37
2022/05/15 08:11:26;;;;;;;1.45;0.88;;;;;;;17.09;nan;102312.88;5080178;28;20024;-37
2022/05/15 08:13:52;;;;;;;3.65;1.10;;;;;;;17.24;nan;102319.53;5082559;28;20114;-37
2022/05/15 08:16:17;;;;;;;3.80;1.30;;;;;;;17.26;nan;102320.91;5087158;28;20511;-37
2022/05/15 08:24:11;;;;;;;4.18;0.90;;;;;;;17.55;nan;102331.47;5088844;28;20174;-37
2022/05/15 08:26:37;;;;;;;3.13;1.30;;;;;;;17.64;nan;102321.84;5085979;28;20110;-37
2022/05/15 08:29:03;;;;;;;4.13;1.55;;;;;;;17.73;nan;102318.41;5087261;28;20111;-37
2022/05/15 08:31:30;;;;;;;5.70;1.50;;;;;;;17.76;nan;102322.50;5089884;28;20020;-37
2022/05/15 08:33:56;;;;;;;5.78;1.65;;;;;;;17.83;nan;102327.72;5091108;28;20016;-38
2022/05/15 08:36:22;;;;;;;2.60;1.00;;;;;;;17.95;nan;102331.06;5081142;28;20564;-37
2022/05/15 08:38:50;;;;;;;4.32;1.25;;;;;;;18.05;nan;102336.56;5087739;28;20020;-38
2022/05/15 08:41:31;;;;;;;5.70;1.65;;;;;;;18.15;nan;102323.09;5087396;28;20092;-37
2022/05/15 08:44:14;;;;;;;3.65;1.80;;;;;;;18.20;nan;102328.56;5085050;28;20084;-37
2022/05/15 08:46:49;;;;;;;2.42;1.20;;;;;;;18.21;nan;102329.38;5092892;28;20035;-37
2022/05/15 08:49:29;;;;;;;5.90;1.40;;;;;;;18.32;nan;102331.91;5084308;28;20484;-37
2022/05/15 08:52:34;;;;;;;5.90;1.60;;;;;;;18.38;nan;102322.69;5087193;28;20027;-37
2022/05/15 08:55:17;;;;;;;4.53;1.70;;;;;;;18.16;nan;102316.59;5085317;28;20031;-38
2022/05/15 08:57:52;;;;;;;2.90;1.15;;;;;;;18.30;nan;102320.47;5088215;28;20055;-37
2022/05/15 09:00:28;;;;;;;2.25;1.30;;;;;;;18.35;nan;102322.41;5092857;28;20043;-37
2022/05/15 09:02:59;;;;;;;4.80;1.20;;;;;;;18.46;nan;102323.28;5084136;28;20058;-37
2022/05/15 09:05:29;;;;;;;3.42;1.27;;;;;;;18.58;nan;102323.91;5086137;28;20094;-37
2022/05/15 09:08:27;;;;;;;6.88;1.60;;;;;;;18.69;nan;102326.44;5086326;28;20020;-37
2022/05/15 09:11:03;;;;;;;7.10;1.70;;;;;;;18.83;nan;102326.75;5086209;28;20024;-37
2022/05/15 09:13:37;;;;;;;4.63;1.23;;;;;;;18.94;nan;102328.44;5085309;28;20139;-37
2022/05/15 09:16:06;;;;;;;1.88;1.30;;;;;;;19.07;nan;102329.03;5077367;28;20021;-37
2022/05/15 09:18:37;;;;;;;5.25;1.60;;;;;;;19.04;nan;102311.38;5083067;28;20111;-37
2022/05/15 09:21:14;;;;;;;6.28;1.95;;;;;;;19.07;nan;102324.41;5081048;28;20024;-38
2022/05/15 09:23:50;;;;;;;5.72;1.65;;;;;;;19.17;nan;102313.56;5080110;28;20064;-37
2022/05/15 09:26:48;;;;;;;19.52;10.95;;;;;;;19.19;nan;102322.25;5089899;28;20497;-39
2022/05/15 09:29:34;;;;;;;61.85;39.38;;;;;;;19.19;nan;102319.53;5071075;28;20677;-39
2022/05/15 09:32:02;;;;;;;20.15;12.90;;;;;;;19.21;nan;102311.13;5083506;28;20065;-39
2022/05/15 09:34:31;;;;;;;6.95;2.88;;;;;;;19.28;nan;102317.13;5081635;28;20513;-39
2022/05/15 09:39:50;;;;;;;5.43;1.63;;;;;;;19.47;nan;102312.81;5087033;28;20046;-38
2022/05/15 09:45:26;;;;;;;5.22;1.50;;;;;;;19.44;nan;102316.09;5078976;28;20042;-38
2022/05/15 09:47:55;;;;;;;3.10;1.50;;;;;;;19.63;nan;102318.31;5079723;28;20118;-38
2022/05/15 09:50:40;;;;;;;4.07;1.40;;;;;;;19.76;nan;102317.78;5084524;28;20085;-39
2022/05/15 09:53:10;;;;;;;;;;;;;;;19.78;nan;102319.13;5079516;28;20032;-47
2022/05/15 09:55:36;;;;;;;5.47;1.75;;;;;;;19.69;nan;102318.03;5089534;28;19923;-38
2022/05/15 09:58:05;;;;;;;4.40;1.50;;;;;;;19.78;nan;102321.88;5086232;28;20066;-38
2022/05/15 10:00:38;;;;;;;2.38;1.10;;;;;;;20.00;nan;102313.41;5096143;28;20039;-39
2022/05/15 10:03:25;;;;;;;8.55;2.00;;;;;;;19.60;nan;102311.53;5085979;28;20536;-38
2022/05/15 10:06:01;;;;;;;4.07;1.38;;;;;;;19.30;nan;102321.22;5076712;28;20031;-39
2022/05/15 10:08:28;;;;;;;3.08;1.23;;;;;;;19.43;nan;102316.34;5093605;28;20547;-38
2022/05/15 10:11:01;;;;;;;4.72;1.40;;;;;;;19.47;nan;102310.09;5085362;28;20104;-38
2022/05/15 10:13:50;;;;;;;6.07;1.80;;;;;;;19.62;nan;102312.06;5082668;28;20035;-39
2022/05/15 10:16:42;;;;;;;5.53;1.45;;;;;;;19.78;nan;102307.44;5086188;28;20040;-37
2022/05/15 10:19:15;;;;;;;3.40;1.40;;;;;;;20.00;nan;102305.25;5087813;28;20965;-38
2022/05/15 10:21:49;;;;;;;6.97;1.75;;;;;;;20.20;nan;102309.84;5084710;28;20078;-37
2022/05/15 10:24:20;;;;;;;2.80;1.58;;;;;;;20.30;nan;102303.59;5083979;28;20043;-38
2022/05/15 10:26:52;;;;;;;5.13;1.30;;;;;;;20.43;nan;102305.75;5089587;28;20028;-39
2022/05/15 10:29:54;;;;;;;3.53;1.60;;;;;;;20.51;nan;102294.31;5084635;28;20028;-38
2022/05/15 10:32:23;;;;;;;2.55;1.35;;;;;;;20.67;nan;102293.16;5082749;28;20024;-38
2022/05/15 10:34:49;;;;;;;9.40;4.50;;;;;;;20.79;nan;102296.34;5084008;28;20077;-38
2022/05/15 10:37:33;;;;;;;63.30;39.80;;;;;;;20.86;nan;102297.97;5088964;28;20020;-38
2022/05/15 10:40:17;;;;;;;39.20;28.07;;;;;;;20.96;nan;102300.63;5086945;28;20024;-38
2022/05/15 10:43:01;;;;;;;6.03;2.95;;;;;;;20.85;nan;102285.44;5089055;28;20107;-38
2022/05/15 10:46:05;;;;;;;3.90;1.50;;;;;;;20.71;nan;102275.16;5079584;28;20048;-38
2022/05/15 10:48:41;;;;;;;4.90;1.33;;;;;;;20.79;nan;102282.72;5051118;28;20043;-37
2022/05/15 10:51:21;;;;;;;3.03;1.25;;;;;;;20.59;nan;102276.56;5113780;22;20048;-53
2022/05/15 11:00:09;;;;;;;4.57;1.65;;;;;;;20.55;nan;102275.50;5095761;28;20047;-50
2022/05/15 11:02:40;;;;;;;2.40;1.20;;;;;;;20.58;nan;102277.66;5067176;28;20044;-52
2022/05/15 11:05:12;;;;;;;4.10;1.23;;;;;;;20.75;nan;102289.84;5079552;28;20057;-52
2022/05/15 11:07:47;;;;;;;3.17;1.30;;;;;;;21.00;nan;102272.53;5084555;28;20061;-52
2022/05/15 11:10:38;;;;;;;5.55;1.65;;;;;;;21.21;nan;102289.59;5082398;28;20472;-52
2022/05/15 11:13:35;;;;;;;2.30;1.23;;;;;;;21.23;nan;102268.34;5080130;28;20044;-53
2022/05/15 11:16:35;;;;;;;3.30;1.50;;;;;;;21.18;nan;102262.91;5084561;28;20058;-51
2022/05/15 11:19:37;;;;;;;5.90;1.92;;;;;;;21.05;nan;102260.81;5045671;28;20481;-53
2022/05/15 11:22:44;;;;;;;3.97;1.77;;;;;;;21.24;nan;102263.69;5083061;28;20036;-49
2022/05/15 11:25:20;;;;;;;4.75;1.70;;;;;;;21.37;nan;102255.72;5076848;28;20121;-51
2022/05/15 11:27:46;;;;;;;3.50;1.23;;;;;;;21.49;nan;102258.06;5080496;28;20342;-50
2022/05/15 11:30:17;;;;;;;3.42;1.27;;;;;;;21.47;nan;102254.81;5087134;28;20085;-51
2022/05/15 11:32:46;;;;;;;2.33;1.17;;;;;;;21.44;nan;102251.84;5087779;28;20027;-52
2022/05/15 11:35:17;;;;;;;5.25;1.70;;;;;;;21.19;nan;102250.09;5088711;28;20031;-51
2022/05/15 11:37:43;;;;;;;3.55;1.40;;;;;;;21.34;nan;102248.09;5083223;28;20076;-51
2022/05/15 11:40:11;;;;;;;4.50;1.70;;;;;;;21.54;nan;102249.03;5085245;28;20023;-52
2022/05/15 11:42:37;;;;;;;3.45;1.27;;;;;;;21.52;nan;102241.13;5088140;28;20023;-52
2022/05/15 11:45:33;;;;;;;1.52;1.02;;;;;;;21.47;nan;102243.09;5085127;28;20032;-52
2022/05/15 11:48:13;;;;;;;3.55;1.70;;;;;;;21.47;nan;102243.91;5063103;28;20379;-52
2022/05/15 11:50:53;;;;;;;3.67;1.40;;;;;;;21.63;nan;102247.31;5082481;28;20035;-49
2022/05/15 11:53:37;;;;;;;4.30;1.38;;;;;;;21.90;nan;102242.19;5082663;28;20384;-52
2022/05/15 11:56:23;;;;;;;3.40;1.27;;;;;;;22.18;nan;102231.53;5083759;28;20024;-52
2022/05/15 11:58:58;;;;;;;2.85;1.38;;;;;;;22.37;nan;102224.19;5074871;28;20130;-52
2022/05/15 12:01:37;;;;;;;5.35;2.30;;;;;;;22.46;nan;102233.38;5091133;28;20098;-51
2022/05/15 12:04:07;;;;;;;4.22;1.50;;;;;;;22.68;nan;102229.28;5084619;28;20033;-51
2022/05/15 12:06:55;;;;;;;4.13;1.27;;;;;;;22.80;nan;102221.44;5087588;28;20028;-52
2022/05/15 12:09:39;;;;;;;1.88;1.08;;;;;;;22.98;nan;102222.59;5043696;28;20401;-53
2022/05/15 12:12:23;;;;;;;5.03;1.40;;;;;;;23.16;nan;102213.56;5084150;28;20054;-53
2022/05/15 12:15:22;;;;;;;7.25;1.65;;;;;;;23.25;nan;102210.97;5086282;28;20031;-50
2022/05/15 12:17:50;;;;;;;4.18;1.98;;;;;;;23.31;nan;102210.59;5037473;28;20039;-52
2022/05/15 12:20:42;;;;;;;3.60;1.00;;;;;;;23.08;nan;102212.31;5079594;28;20034;-51
2022/05/15 12:23:22;;;;;;;3.10;1.20;;;;;;;23.21;nan;102216.22;5086985;28;20395;-51
2022/05/15 12:25:56;;;;;;;3.45;1.30;;;;;;;23.12;nan;102213.34;5082550;28;20502;-54